Stations météo

réclame
Mon MeteoGroup
Melle, Belgique (6434): Température de l'air & dewpoint: 26.05.2020 00:00:00 - 01.06.2020 00:00:00 (CEST)Melle, Belgique (6434): Vitesse du vent & gusts: 26.05.2020 00:00:00 - 01.06.2020 00:00:00 (CEST)Melle, Belgique (6434): Direction du vent: 26.05.2020 00:00:00 - 01.06.2020 00:00:00 (CEST)Melle, Belgique (6434): reduced air pressure: 26.05.2020 00:00:00 - 01.06.2020 00:00:00 (CEST)Melle, Belgique (6434): Ensoleillement: 26.05.2020 00:00:00 - 01.06.2020 00:00:00 (CEST)Melle, Belgique (6434): Quantités de précipitations: 26.05.2020 00:00:00 - 01.06.2020 00:00:00 (CEST)
Date & Time tt [°C] td [°C] ff [km/h] ff [knt] fx [km/h] fx [knt] dd ppp [hPa] sd [min] rr [mm]
01.06.2020 00:00:00 16,6 5,6 13 7 22 12 ENE 1022,0 0 0,0
31.05.2020 23:00:00 17,9 5,7 13 7 19 10 ENE 1021,7 0 0,0
31.05.2020 22:00:00 19,1 5,6 9 5 22 12 ENE 1021,3 0 0,0
31.05.2020 21:00:00 20,2 5,3 10 5 30 16 ENE 1020,9 57 0,0
31.05.2020 20:00:00 21,4 4,2 22 12 34 19 E 1020,6 60 0,0
31.05.2020 19:00:00 21,8 4,3 16 9 32 17 E 1020,7 60 0,0
31.05.2020 18:00:00 22,2 3,8 16 9 35 19 ENE 1020,9 60 0,0
31.05.2020 17:00:00 22,1 3,1 17 9 34 19 ENE 1021,2 60 0,0
31.05.2020 16:00:00 21,9 2,8 19 11 34 18 NE 1021,4 60 0,0
31.05.2020 15:00:00 21,5 4,0 20 11 34 19 ENE 1021,7 60 0,0
31.05.2020 14:00:00 21,4 5,3 18 10 37 20 ENE 1021,9 59 0,0
31.05.2020 13:00:00 20,6 4,8 22 12 36 19 E 1022,1 58 0,0
31.05.2020 12:00:00 20,1 5,1 17 9 36 20 ENE 1022,5 57 0,0
31.05.2020 11:00:00 19,9 5,5 17 9 31 17 ENE 1023,0 60 0,0
31.05.2020 10:00:00 19,1 5,7 15 8 24 13 ENE 1023,0 60 0,0
31.05.2020 09:00:00 17,3 6,0 11 6 18 10 E 1022,9 60 0,0
31.05.2020 08:00:00 15,2 5,8 7 4 11 6 E 1023,1 60 0,0
31.05.2020 07:00:00 10,8 6,1 4 2 5 3 ENE 1023,0 45 0,0
31.05.2020 06:00:00 8,5 4,6 0 0 9 5 N 1022,7 0 0,0
31.05.2020 05:00:00 8,8 4,1 0 0 5 3 N 1022,4 0 0,0
31.05.2020 04:00:00 10,8 4,0 6 4 10 6 ENE 1022,4 0 0,0
31.05.2020 03:00:00 12,3 4,1 8 5 13 7 E 1022,1 0 0,0
31.05.2020 02:00:00 16,0 4,2 11 6 16 9 E 1022,1 0 0,0
31.05.2020 01:00:00 17,0 4,4 13 7 22 12 E 1022,2 0 0,0
31.05.2020 00:00:00 17,1 4,9 9 5 15 8 ENE 1021,6 0 0,0
30.05.2020 23:00:00 18,9 5,0 11 6 14 7 E 1021,3 0 0,0
30.05.2020 22:00:00 20,2 5,0 10 5 17 9 E 1020,7 31 0,0
30.05.2020 21:00:00 22,1 4,9 12 6 30 16 E 1020,5 60 0,0
30.05.2020 20:00:00 23,2 4,7 18 10 26 14 ENE 1020,5 60 0,0
30.05.2020 19:00:00 23,8 4,9 13 7 31 17 E 1020,7 60 0,0
30.05.2020 18:00:00 23,7 4,2 14 8 30 16 E 1021,1 60 0,0
30.05.2020 17:00:00 23,7 3,4 20 11 35 19 E 1021,4 60 0,0
30.05.2020 16:00:00 23,6 3,5 23 12 37 20 E 1021,8 60 0,0
30.05.2020 15:00:00 23,2 3,8 17 9 34 19 E 1022,0 60 0,0
30.05.2020 14:00:00 22,8 3,4 18 10 38 20 E 1022,7 60 0,0
30.05.2020 13:00:00 22,0 3,7 21 11 35 19 E 1023,1 60 0,0
30.05.2020 12:00:00 21,1 4,2 23 12 35 19 E 1023,4 60 0,0
30.05.2020 11:00:00 20,0 5,5 15 8 23 13 ENE 1023,7 60 0,0
30.05.2020 10:00:00 18,0 5,6 16 8 24 13 E 1023,8 60 0,0
30.05.2020 09:00:00 15,8 5,5 14 8 20 11 E 1023,9 60 0,0
30.05.2020 08:00:00 13,8 5,9 11 6 17 9 E 1023,8 60 0,0
30.05.2020 07:00:00 10,8 7,3 5 3 10 6 E 1023,7 44 0,0
30.05.2020 06:00:00 7,7 6,0 0 0 6 3 N 1023,8 0 0,0
30.05.2020 05:00:00 8,8 6,6 4 2 8 4 SE 1023,8 0 0,0
30.05.2020 04:00:00 10,1 6,8 7 4 12 7 NE 1024,1 0 0,0
30.05.2020 03:00:00 11,7 8,1 9 5 11 6 NE 1024,1 0 0,0
30.05.2020 02:00:00 14,1 8,7 7 4 13 7 NE 1024,3 0 0,0
30.05.2020 01:00:00 15,0 8,5 9 5 13 7 NE 1024,2 0 0,0
30.05.2020 00:00:00 15,2 8,5 8 4 17 9 NNE 1024,1 0 0,0
29.05.2020 23:00:00 15,9 8,9 11 6 18 10 NNE 1023,9 0 0,0
29.05.2020 22:00:00 18,0 7,5 12 6 19 10 NNE 1023,7 18 0,0
29.05.2020 21:00:00 21,2 4,7 12 6 20 11 NE 1023,6 60 0,0
29.05.2020 20:00:00 22,1 3,8 14 8 27 15 ENE 1023,7 60 0,0
29.05.2020 19:00:00 22,6 4,6 15 8 29 16 NE 1024,2 60 0,0
29.05.2020 18:00:00 22,7 4,1 15 8 29 16 E 1024,7 60 0,0
29.05.2020 17:00:00 22,7 4,2 14 8 29 16 ENE 1025,2 60 0,0
29.05.2020 16:00:00 22,3 4,4 11 6 26 14 NNE 1025,9 60 0,0
29.05.2020 15:00:00 21,4 3,9 12 7 27 15 E 1026,6 60 0,0
29.05.2020 14:00:00 21,0 4,4 11 6 26 14 ENE 1027,5 60 0,0
29.05.2020 13:00:00 20,1 5,0 14 7 27 15 NE 1028,2 60 0,0
29.05.2020 12:00:00 18,9 6,1 13 7 23 12 E 1028,7 60 0,0
29.05.2020 11:00:00 17,6 6,9 13 7 18 10 ENE 1029,0 60 0,0
29.05.2020 10:00:00 15,7 6,5 11 6 18 10 E 1029,3 60 0,0
29.05.2020 09:00:00 13,6 5,9 13 7 19 10 E 1029,6 60 0,0
29.05.2020 08:00:00 12,0 5,4 14 8 22 12 E 1029,7 60 0,0
29.05.2020 07:00:00 10,7 5,2 9 5 16 9 ENE 1030,1 44 0,0
29.05.2020 06:00:00 10,0 4,7 10 5 15 8 E 1029,9 0 0,0
29.05.2020 05:00:00 10,3 4,5 9 5 14 8 ENE 1029,9 0 0,0
29.05.2020 04:00:00 11,2 4,2 8 5 15 8 ENE 1030,2 0 0,0
29.05.2020 03:00:00 12,4 4,5 10 5 16 9 NE 1030,5 0 0,0
29.05.2020 02:00:00 13,5 5,0 11 6 23 12 NE 1030,5 0 0,0
29.05.2020 01:00:00 14,2 5,9 10 5 26 14 NE 1030,5 0 0,0
29.05.2020 00:00:00 15,3 7,2 15 8 25 13 NE 1030,5 0 0,0
28.05.2020 23:00:00 16,1 7,5 13 7 30 16 NE 1030,4 0 0,0
28.05.2020 22:00:00 17,5 7,5 18 10 27 15 NNE 1030,2 31 0,0
28.05.2020 21:00:00 19,6 4,9 14 8 30 16 NE 1030,0 60 0,0
28.05.2020 20:00:00 20,8 4,5 14 8 32 17 ENE 1030,0 60 0,0
28.05.2020 19:00:00 21,2 3,5 16 9 33 18 ENE 1030,3 60 0,0
28.05.2020 18:00:00 21,3 3,1 18 10 35 19 ENE 1030,8 60 0,0
28.05.2020 17:00:00 21,4 3,0 18 10 31 17 ENE 1031,3 60 0,0
28.05.2020 16:00:00 21,5 4,2 19 11 34 18 E 1031,9 60 0,0
28.05.2020 15:00:00 20,5 4,4 18 10 36 19 ENE 1032,4 60 0,0
28.05.2020 14:00:00 19,7 4,8 22 12 35 19 E 1033,1 60 0,0
28.05.2020 13:00:00 18,5 4,0 20 11 35 19 ENE 1033,6 60 0,0
28.05.2020 12:00:00 17,9 4,5 16 8 32 17 ENE 1034,2 60 0,0
28.05.2020 11:00:00 16,3 4,4 18 10 33 18 ENE 1034,6 60 0,0
28.05.2020 10:00:00 15,3 4,7 18 10 34 18 E 1034,9 60 0,0
28.05.2020 09:00:00 13,7 4,7 21 11 38 21 ENE 1035,1 60 0,0
28.05.2020 08:00:00 12,2 5,2 18 10 25 14 ENE 1034,9 60 0,0
28.05.2020 07:00:00 10,7 4,9 10 5 23 12 NE 1034,9 43 0,0
28.05.2020 06:00:00 10,1 5,0 13 7 19 10 NE 1034,8 0 0,0
28.05.2020 05:00:00 10,8 6,4 12 6 20 11 NE 1034,5 0 0,0
28.05.2020 04:00:00 11,2 8,6 11 6 17 9 NE 1034,5 0 0,0
28.05.2020 03:00:00 11,1 9,5 11 6 16 8 NNE 1034,5 0 0,0
28.05.2020 02:00:00 10,8 8,9 7 4 10 6 N 1034,7 0 0,0
28.05.2020 01:00:00 10,8 8,4 8 4 16 9 N 1034,9 0 0,0
28.05.2020 00:00:00 11,7 8,1 11 6 18 10 NNE 1035,0 0 0,0
27.05.2020 23:00:00 12,9 7,7 13 7 20 11 N 1034,7 0 0,0
27.05.2020 22:00:00 14,7 7,2 13 7 31 17 N 1034,4 24 0,0
27.05.2020 21:00:00 17,1 5,7 19 10 40 21 N 1034,2 60 0,0
27.05.2020 20:00:00 18,6 6,3 25 14 42 23 N 1034,0 60 0,0
27.05.2020 19:00:00 20,0 7,4 27 15 40 21 NNE 1033,8 60 0,0
27.05.2020 18:00:00 21,0 5,5 26 14 42 23 NNE 1034,0 60 0,0
27.05.2020 17:00:00 21,6 3,9 26 14 38 21 N 1034,1 60 0,0
27.05.2020 16:00:00 21,7 3,5 25 13 40 21 NNE 1034,2 60 0,0
27.05.2020 15:00:00 21,7 8,6 22 12 34 18 NNE 1034,3 60 0,0
27.05.2020 14:00:00 21,5 9,1 18 10 35 19 NNE 1034,6 60 0,0
27.05.2020 13:00:00 20,9 7,0 15 8 33 18 NNE 1034,9 60 0,0
27.05.2020 12:00:00 20,4 6,3 15 8 26 14 NNE 1034,9 60 0,0
27.05.2020 11:00:00 19,5 6,0 14 7 21 11 N 1034,9 60 0,0
27.05.2020 10:00:00 18,1 8,4 12 7 18 10 N 1035,1 60 0,0
27.05.2020 09:00:00 16,8 9,6 11 6 18 10 N 1035,1 60 0,0
27.05.2020 08:00:00 15,0 10,4 7 4 13 7 N 1035,3 60 0,0
27.05.2020 07:00:00 10,1 7,4 0 0 5 3 N 1035,1 34 0,0
27.05.2020 06:00:00 9,2 6,9 4 2 4 2 W 1034,9 0 0,0
27.05.2020 05:00:00 10,1 6,9 0 0 6 3 N 1034,9 0 0,0
27.05.2020 04:00:00 10,1 7,2 4 2 6 4 NNW 1034,9 0 0,0
27.05.2020 03:00:00 10,5 6,9 4 2 5 3 WNW 1035,0 0 0,0
27.05.2020 02:00:00 12,6 6,6 4 2 10 6 N 1035,3 0 0,0
27.05.2020 01:00:00 14,8 7,3 8 4 16 9 NNE 1035,4 0 0,0
27.05.2020 00:00:00 15,7 8,1 10 5 18 10 N 1035,4 0 0,0
26.05.2020 23:00:00 16,7 7,6 11 6 16 8 NNE 1035,4 0 0,0
26.05.2020 22:00:00 18,2 8,4 9 5 17 9 NNE 1034,9 17 0,0
26.05.2020 21:00:00 20,6 7,1 13 7 26 14 N 1034,6 60 0,0
26.05.2020 20:00:00 22,0 7,9 18 10 29 16 N 1034,4 60 0,0
26.05.2020 19:00:00 23,7 6,2 16 9 29 15 N 1034,4 60 0,0
26.05.2020 18:00:00 24,1 6,7 16 9 27 15 NNE 1034,5 60 0,0
26.05.2020 17:00:00 24,0 7,7 17 9 27 14 N 1034,7 60 0,0
26.05.2020 16:00:00 24,3 7,7 11 6 31 17 NW 1034,9 60 0,0
26.05.2020 15:00:00 23,4 9,0 16 9 23 12 NNE 1035,1 50 0,0
26.05.2020 14:00:00 23,4 8,8 11 6 20 11 NNE 1035,4 55 0,0
26.05.2020 13:00:00 22,7 9,6 9 5 17 9 NNE 1035,7 60 0,0
26.05.2020 12:00:00 21,8 9,6 5 3 16 9 NW 1036,0 60 0,0
26.05.2020 11:00:00 20,6 9,3 4 2 9 5 ENE 1036,1 60 0,0
26.05.2020 10:00:00 18,0 10,5 5 3 9 5 SSW 1036,2 60 0,0
26.05.2020 09:00:00 16,2 10,7 6 4 10 5 SE 1036,0 60 0,0
26.05.2020 08:00:00 12,8 10,1 0 0 3 2 N 1036,0 60 0,0
26.05.2020 07:00:00 8,7 7,4 4 2 4 2 WSW 1036,1 23 0,0
26.05.2020 06:00:00 7,3 6,2 0 0 3 2 N 1035,6 0 0,0
26.05.2020 05:00:00 7,6 6,3 0 0 4 2 N 1035,6 0 0,0
26.05.2020 04:00:00 8,2 6,8 0 0 4 2 N 1035,5 0 0,0
26.05.2020 03:00:00 9,1 7,3 0 0 6 3 N 1035,6 0 0,0
26.05.2020 02:00:00 10,3 8,0 4 2 6 4 ESE 1035,2 0 0,0
26.05.2020 01:00:00 9,9 7,4 0 0 4 2 N 1035,4 0 0,0
26.05.2020 00:00:00 11,6 8,0 0 0 8 4 N 1035,5 0 0,0

tt = Température de l'air
td = dewpoint
ff = Vitesse du vent
fx = gusts
dd = Direction du vent
ppp = reduced air pressure
sd = Ensoleillement
rr = Quantités de précipitations

stations d'obs. à proximité